Terminal Aerodrome Forecast
Issued by NWS

Home | Current Version | Previous Version | Text Only | Print | Product List | Glossary Off
Versions: 1 2 3 4 5 6 7 8 9 10 11 12 13 14 15 16 17 18 19 20

000
FTUS43 KMPX 241200 CCA
TAFRNH
TAF COR
KRNH 241212Z 2412/2512 14006KT 4SM BR SCT002
      TEMPO 2412/2414 1SM BR
     FM241400 17005KT 6SM BR SCT005
     FM241700 19008KT P6SM SCT015 BKN025
     FM242000 21008KT P6SM SCT025 BKN250
     FM250300 25006KT P6SM SCT250=

USA.gov is the U.S. government's official web portal to all federal, state and local government web resources and services.